createdAt,value
2019-02-25T00:16:35.790Z,1.40
2019-02-25T00:46:39.193Z,0.60
2019-02-25T01:16:42.690Z,0.10
2019-02-25T01:46:46.151Z,-0.80
2019-02-25T02:16:49.565Z,-0.30
2019-02-25T02:46:56.251Z,-0.60
2019-02-25T03:16:59.672Z,-0.50
2019-02-25T03:47:03.098Z,-0.50
2019-02-25T04:17:06.576Z,-1.20
2019-02-25T04:47:09.999Z,-1.00
2019-02-25T05:17:13.519Z,-1.50
2019-02-25T05:47:17.017Z,-1.00
2019-02-25T06:17:20.432Z,-1.10
2019-02-25T06:47:23.869Z,-0.60
2019-02-25T07:17:28.931Z,-0.10
2019-02-25T07:47:33.986Z,1.80
2019-02-25T08:17:55.425Z,4.20
2019-02-25T08:48:06.400Z,7.10
2019-02-25T09:18:10.118Z,8.90
2019-02-25T09:48:13.520Z,10.70
2019-02-25T10:18:16.918Z,11.50
2019-02-25T10:48:21.693Z,12.20
2019-02-25T11:18:26.644Z,12.80
2019-02-25T11:48:30.559Z,13.50
2019-02-25T12:18:34.011Z,13.60
2019-02-25T12:48:37.418Z,12.20
2019-02-25T13:18:40.859Z,11.60
2019-02-25T13:48:44.283Z,13.40
2019-02-25T14:18:47.738Z,14.10
2019-02-25T14:48:51.165Z,14.00
2019-02-25T15:18:54.596Z,12.40
2019-02-25T15:48:58.924Z,11.00
2019-02-25T16:19:05.571Z,9.80
2019-02-25T16:49:07.732Z,8.00
2019-02-25T17:19:11.189Z,6.10
2019-02-25T17:49:16.753Z,5.00
2019-02-25T18:19:20.846Z,4.80
2019-02-25T18:49:26.607Z,3.80
2019-02-25T19:19:31.360Z,3.90
2019-02-25T19:49:36.796Z,3.60
2019-02-25T20:19:41.828Z,4.80
2019-02-25T20:49:47.369Z,5.80
2019-02-25T21:19:50.351Z,6.50
2019-02-25T21:49:54.986Z,6.50
2019-02-25T22:19:58.839Z,4.70
2019-02-25T22:50:04.147Z,4.90
2019-02-25T23:20:11.942Z,4.10
2019-02-25T23:50:15.406Z,3.70
